createdAt,value
2022-09-23T00:00:32.349Z,4.60
2022-09-23T00:01:32.369Z,5.70
2022-09-23T00:02:33.327Z,3.70
2022-09-23T00:03:33.775Z,6.30
2022-09-23T00:04:32.188Z,3.10
2022-09-23T00:05:32.208Z,2.80
2022-09-23T00:06:32.207Z,2.90
2022-09-23T00:07:32.179Z,4.90
2022-09-23T00:08:32.142Z,2.90
2022-09-23T00:09:32.149Z,4.50
2022-09-23T00:10:32.100Z,5.10
2022-09-23T00:11:32.156Z,4.70
2022-09-23T00:12:32.139Z,5.20
2022-09-23T00:13:32.092Z,1.80
2022-09-23T00:14:32.098Z,2.20
2022-09-23T00:15:32.996Z,2.40
2022-09-23T00:16:32.919Z,2.30
2022-09-23T00:17:32.118Z,3.90
2022-09-23T00:18:31.989Z,4.90
2022-09-23T00:19:32.065Z,3.70
2022-09-23T00:20:32.066Z,3.80
2022-09-23T00:21:32.900Z,5.40
2022-09-23T00:22:32.803Z,6.50
2022-09-23T00:23:31.908Z,4.60
2022-09-23T00:24:32.876Z,7.80
2022-09-23T00:25:33.342Z,6.20
2022-09-23T00:26:31.911Z,6.50
2022-09-23T00:27:32.840Z,8.10
2022-09-23T00:28:32.275Z,3.60
2022-09-23T00:29:31.862Z,2.80
2022-09-23T00:30:32.847Z,2.70
2022-09-23T00:31:31.824Z,4.50
2022-09-23T00:32:32.615Z,4.50
2022-09-23T00:33:32.772Z,5.10
2022-09-23T00:34:32.232Z,3.30
2022-09-23T00:35:31.813Z,5.60
2022-09-23T00:36:31.764Z,2.30
2022-09-23T00:37:32.573Z,3.90
2022-09-23T00:38:32.852Z,2.70
2022-09-23T00:39:31.785Z,4.80
2022-09-23T00:40:32.290Z,5.40
2022-09-23T00:41:31.758Z,2.60
2022-09-23T00:42:31.715Z,3.20
2022-09-23T00:43:32.234Z,3.90
2022-09-23T00:44:32.223Z,3.10
2022-09-23T00:45:32.910Z,3.50
2022-09-23T00:46:31.685Z,4.50
2022-09-23T00:47:31.615Z,5.50
2022-09-23T00:48:32.076Z,2.80
2022-09-23T00:49:31.628Z,5.00
2022-09-23T00:50:31.636Z,4.00
2022-09-23T00:51:31.586Z,5.10
2022-09-23T00:52:31.517Z,2.90
2022-09-23T00:53:32.386Z,2.50
2022-09-23T00:54:31.587Z,4.90
2022-09-23T00:55:32.456Z,3.20
2022-09-23T00:56:31.626Z,2.70
2022-09-23T00:57:32.207Z,2.80
2022-09-23T00:58:31.486Z,2.40
2022-09-23T00:59:31.699Z,2.60
2022-09-23T01:00:32.287Z,2.40
2022-09-23T01:01:37.646Z,2.90
2022-09-23T01:02:42.925Z,5.50
2022-09-23T01:03:31.387Z,2.40
2022-09-23T01:04:31.398Z,5.80
2022-09-23T01:05:32.996Z,3.70
2022-09-23T01:06:32.045Z,2.70
2022-09-23T01:07:31.367Z,4.60
2022-09-23T01:08:31.345Z,3.80
2022-09-23T01:09:31.465Z,2.90
2022-09-23T01:10:32.137Z,3.40
2022-09-23T01:11:31.480Z,2.80
2022-09-23T01:12:36.451Z,2.30
2022-09-23T01:13:33.029Z,5.40
2022-09-23T01:14:32.497Z,3.40
2022-09-23T01:15:31.847Z,3.80
2022-09-23T01:16:31.794Z,3.70
2022-09-23T01:17:31.391Z,3.80
2022-09-23T01:18:31.519Z,3.50
2022-09-23T01:19:31.932Z,3.60
2022-09-23T01:20:31.142Z,3.30
2022-09-23T01:21:31.132Z,3.30
2022-09-23T01:22:31.132Z,4.70
2022-09-23T01:23:31.132Z,2.70
2022-09-23T01:24:32.004Z,3.70
2022-09-23T01:25:31.113Z,3.60
2022-09-23T01:26:31.191Z,4.20
2022-09-23T01:27:31.141Z,4.90
2022-09-23T01:28:31.051Z,2.40
2022-09-23T01:29:32.958Z,4.40
2022-09-23T01:30:31.082Z,7.10
2022-09-23T01:31:33.032Z,4.10
2022-09-23T01:32:31.592Z,3.80
2022-09-23T01:33:31.322Z,4.70
2022-09-23T01:34:31.465Z,4.70
2022-09-23T01:35:31.006Z,4.80
2022-09-23T01:36:33.884Z,5.50
2022-09-23T01:37:31.019Z,6.10
2022-09-23T01:38:31.275Z,5.30
2022-09-23T01:39:30.985Z,4.10
2022-09-23T01:40:31.098Z,4.50
2022-09-23T01:41:31.210Z,3.50
2022-09-23T01:42:30.911Z,4.20
2022-09-23T01:43:31.703Z,4.60
2022-09-23T01:44:31.594Z,2.70
2022-09-23T01:45:31.780Z,4.50
2022-09-23T01:46:32.325Z,4.70
2022-09-23T01:47:31.624Z,5.80
2022-09-23T01:48:30.792Z,3.40
2022-09-23T01:49:30.727Z,5.30
2022-09-23T01:50:31.359Z,5.50
2022-09-23T01:51:31.687Z,3.30
2022-09-23T01:52:30.748Z,4.80
2022-09-23T01:53:30.712Z,5.20
2022-09-23T01:54:31.656Z,5.30
2022-09-23T01:55:30.656Z,3.10
2022-09-23T01:56:30.674Z,4.10
2022-09-23T01:57:30.648Z,3.40
2022-09-23T01:58:31.574Z,3.90
2022-09-23T01:59:30.608Z,3.60
2022-09-23T02:00:31.327Z,5.70
2022-09-23T02:01:31.532Z,3.80
2022-09-23T02:02:30.633Z,2.50
2022-09-23T02:03:31.301Z,4.00
2022-09-23T02:04:30.574Z,3.80
2022-09-23T02:05:31.371Z,3.20
2022-09-23T02:06:31.269Z,3.10
2022-09-23T02:07:31.439Z,2.10
2022-09-23T02:08:31.943Z,2.70
2022-09-23T02:09:31.279Z,2.40
2022-09-23T02:10:31.400Z,2.00
2022-09-23T02:11:31.301Z,1.50
2022-09-23T02:12:30.418Z,1.90
2022-09-23T02:13:31.306Z,2.10
2022-09-23T02:14:30.451Z,1.80
2022-09-23T02:15:31.170Z,1.60
2022-09-23T02:16:30.378Z,1.40
2022-09-23T02:17:30.427Z,1.40
2022-09-23T02:18:30.409Z,1.90
2022-09-23T02:19:30.617Z,1.80
2022-09-23T02:20:31.221Z,1.70
2022-09-23T02:21:31.114Z,2.00
2022-09-23T02:22:31.272Z,3.10
2022-09-23T02:23:30.289Z,2.60
2022-09-23T02:24:31.085Z,2.60
2022-09-23T02:25:31.702Z,2.90
2022-09-23T02:26:30.283Z,2.10
2022-09-23T02:27:30.204Z,1.70
2022-09-23T02:28:30.950Z,2.20
2022-09-23T02:29:30.181Z,2.40
2022-09-23T02:30:31.036Z,1.80
2022-09-23T02:31:30.180Z,1.40
2022-09-23T02:32:31.073Z,1.50
2022-09-23T02:33:30.127Z,1.60
2022-09-23T02:34:30.095Z,1.40
2022-09-23T02:35:31.055Z,1.90
2022-09-23T02:36:30.966Z,1.60
2022-09-23T02:37:30.043Z,1.80
2022-09-23T02:38:30.076Z,1.50
2022-09-23T02:39:30.914Z,1.30
2022-09-23T02:40:30.988Z,1.40
2022-09-23T02:41:30.983Z,1.50
2022-09-23T02:42:29.994Z,1.60
2022-09-23T02:43:30.797Z,1.30
2022-09-23T02:44:30.960Z,1.30
2022-09-23T02:45:30.895Z,1.80
2022-09-23T02:46:30.102Z,1.30
2022-09-23T02:47:30.665Z,1.20
2022-09-23T02:48:29.910Z,2.10
2022-09-23T02:49:29.993Z,1.80
2022-09-23T02:50:30.060Z,1.40
2022-09-23T02:51:30.018Z,1.40
2022-09-23T02:52:29.852Z,1.40
2022-09-23T02:53:30.856Z,1.60
2022-09-23T02:54:29.857Z,1.60
2022-09-23T02:55:29.870Z,1.60
2022-09-23T02:56:30.371Z,1.50
2022-09-23T02:57:30.022Z,1.80
2022-09-23T02:58:30.632Z,1.30
2022-09-23T02:59:29.842Z,1.30
2022-09-23T03:00:30.697Z,1.20
2022-09-23T03:01:29.891Z,1.30
2022-09-23T03:02:29.991Z,1.20
2022-09-23T03:03:30.647Z,1.30
2022-09-23T03:04:30.575Z,1.50
2022-09-23T03:05:30.471Z,1.30
2022-09-23T03:06:30.633Z,1.20
2022-09-23T03:07:30.529Z,1.20
2022-09-23T03:08:29.930Z,1.20
2022-09-23T03:09:30.600Z,1.80
2022-09-23T03:10:30.537Z,1.60
2022-09-23T03:11:29.649Z,1.60
2022-09-23T03:12:29.762Z,1.30
2022-09-23T03:13:29.782Z,1.40
2022-09-23T03:14:31.152Z,1.50
2022-09-23T03:15:29.617Z,1.60
2022-09-23T03:16:29.586Z,1.60
2022-09-23T03:17:29.513Z,1.70
2022-09-23T03:18:29.463Z,1.50
2022-09-23T03:19:29.536Z,1.30
2022-09-23T03:20:30.312Z,1.40
2022-09-23T03:21:29.501Z,1.30
2022-09-23T03:22:29.452Z,1.20
2022-09-23T03:23:30.280Z,1.50
2022-09-23T03:24:29.403Z,1.70
2022-09-23T03:25:30.859Z,1.50
2022-09-23T03:26:30.244Z,1.70
2022-09-23T03:27:30.158Z,2.00
2022-09-23T03:28:30.334Z,1.60
2022-09-23T03:29:29.343Z,1.60
2022-09-23T03:30:29.343Z,1.60
2022-09-23T03:31:30.320Z,1.70
2022-09-23T03:32:30.182Z,1.30
2022-09-23T03:33:29.296Z,1.40
2022-09-23T03:34:30.249Z,1.10
2022-09-23T03:35:29.282Z,1.50
2022-09-23T03:36:30.673Z,1.50
2022-09-23T03:37:29.212Z,1.20
2022-09-23T03:38:30.119Z,1.60
2022-09-23T03:39:29.185Z,1.80
2022-09-23T03:40:30.028Z,1.80
2022-09-23T03:41:30.083Z,1.90
2022-09-23T03:42:29.985Z,1.80
2022-09-23T03:43:30.074Z,1.80
2022-09-23T03:44:29.129Z,1.80
2022-09-23T03:45:29.156Z,1.70
2022-09-23T03:46:29.866Z,1.60
2022-09-23T03:47:30.023Z,1.20
2022-09-23T03:48:29.096Z,1.50
2022-09-23T03:49:29.828Z,1.60
2022-09-23T03:50:29.026Z,1.60
2022-09-23T03:51:29.938Z,1.60
2022-09-23T03:52:29.799Z,1.30
2022-09-23T03:53:29.957Z,1.70
2022-09-23T03:54:29.858Z,1.40
2022-09-23T03:55:29.767Z,1.40
2022-09-23T03:56:28.948Z,1.50
2022-09-23T03:57:28.977Z,1.60
2022-09-23T03:58:29.735Z,1.20
2022-09-23T03:59:29.897Z,1.60
2022-09-23T04:00:28.897Z,1.50
2022-09-23T04:01:28.954Z,1.70
2022-09-23T04:02:29.959Z,1.70
2022-09-23T04:03:28.847Z,1.80
2022-09-23T04:04:28.856Z,1.70
2022-09-23T04:05:29.832Z,1.60
2022-09-23T04:06:29.729Z,2.00
2022-09-23T04:07:28.828Z,1.80
2022-09-23T04:08:30.242Z,1.70
2022-09-23T04:09:28.767Z,2.10
2022-09-23T04:10:29.609Z,1.90
2022-09-23T04:11:29.509Z,1.80
2022-09-23T04:12:28.918Z,1.50
2022-09-23T04:13:28.729Z,1.50
2022-09-23T04:14:28.813Z,2.00
2022-09-23T04:15:28.790Z,1.60
2022-09-23T04:16:28.741Z,1.60
2022-09-23T04:17:28.653Z,1.60
2022-09-23T04:18:28.657Z,2.00
2022-09-23T04:19:29.190Z,1.60
2022-09-23T04:20:30.447Z,2.00
2022-09-23T04:21:28.649Z,1.50
2022-09-23T04:22:28.594Z,2.00
2022-09-23T04:23:28.572Z,1.60
2022-09-23T04:24:28.603Z,1.70
2022-09-23T04:25:28.552Z,1.60
2022-09-23T04:26:29.351Z,1.90
2022-09-23T04:27:28.547Z,1.60
2022-09-23T04:28:28.585Z,1.70
2022-09-23T04:29:28.603Z,1.80
2022-09-23T04:30:29.221Z,1.90
2022-09-23T04:31:28.487Z,2.50
2022-09-23T04:32:29.284Z,2.20
2022-09-23T04:33:29.192Z,2.90
2022-09-23T04:34:29.351Z,2.50
2022-09-23T04:35:28.405Z,2.30
2022-09-23T04:36:29.175Z,1.70
2022-09-23T04:37:28.605Z,2.20
2022-09-23T04:38:28.343Z,2.30
2022-09-23T04:39:28.374Z,1.70
2022-09-23T04:40:29.338Z,1.70
2022-09-23T04:41:28.306Z,1.50
2022-09-23T04:42:28.364Z,1.50
2022-09-23T04:43:29.316Z,1.40
2022-09-23T04:44:29.156Z,1.70
2022-09-23T04:45:28.324Z,1.70
2022-09-23T04:46:28.378Z,1.40
2022-09-23T04:47:29.126Z,1.50
2022-09-23T04:48:29.034Z,1.60
2022-09-23T04:49:28.227Z,1.40
2022-09-23T04:50:28.389Z,1.50
2022-09-23T04:51:28.198Z,1.60
2022-09-23T04:52:28.158Z,1.70
2022-09-23T04:53:28.350Z,1.70
2022-09-23T04:54:28.993Z,1.50
2022-09-23T04:55:28.198Z,1.30
2022-09-23T04:56:28.189Z,1.70
2022-09-23T04:57:29.529Z,1.40
2022-09-23T04:58:29.102Z,1.50
2022-09-23T04:59:28.245Z,1.50
2022-09-23T05:00:28.998Z,1.70
2022-09-23T05:01:29.047Z,1.60
2022-09-23T05:02:28.098Z,1.40
2022-09-23T05:03:28.908Z,2.30
2022-09-23T05:04:28.787Z,1.70
2022-09-23T05:05:28.938Z,1.90
2022-09-23T05:06:28.911Z,2.00
2022-09-23T05:07:28.138Z,2.10
2022-09-23T05:08:29.427Z,2.60
2022-09-23T05:09:28.825Z,1.90
2022-09-23T05:10:28.257Z,1.40
2022-09-23T05:11:28.036Z,1.60
2022-09-23T05:12:27.931Z,1.60
2022-09-23T05:13:27.990Z,1.70
2022-09-23T05:14:28.274Z,1.60
2022-09-23T05:15:28.740Z,1.60
2022-09-23T05:16:28.676Z,1.60
2022-09-23T05:17:28.802Z,1.60
2022-09-23T05:18:27.822Z,1.50
2022-09-23T05:19:27.931Z,1.70
2022-09-23T05:20:27.811Z,1.50
2022-09-23T05:21:28.310Z,1.40
2022-09-23T05:22:27.784Z,1.70
2022-09-23T05:23:28.252Z,1.90
2022-09-23T05:24:28.645Z,1.60
2022-09-23T05:25:27.703Z,1.60
2022-09-23T05:26:28.452Z,1.20
2022-09-23T05:27:27.742Z,1.50
2022-09-23T05:28:28.513Z,1.40
2022-09-23T05:29:28.422Z,1.60
2022-09-23T05:30:28.586Z,1.50
2022-09-23T05:31:28.523Z,1.70
2022-09-23T05:32:28.395Z,1.60
2022-09-23T05:33:28.556Z,1.50
2022-09-23T05:34:27.608Z,1.60
2022-09-23T05:35:28.359Z,1.50
2022-09-23T05:36:28.523Z,1.40
2022-09-23T05:37:28.428Z,1.70
2022-09-23T05:38:27.532Z,1.70
2022-09-23T05:39:27.575Z,1.50
2022-09-23T05:40:28.501Z,1.60
2022-09-23T05:41:28.960Z,1.70
2022-09-23T05:42:28.464Z,1.70
2022-09-23T05:43:28.357Z,1.60
2022-09-23T05:44:28.266Z,1.60
2022-09-23T05:45:27.466Z,1.70
2022-09-23T05:46:28.366Z,1.60
2022-09-23T05:47:27.528Z,1.60
2022-09-23T05:48:28.388Z,2.00
2022-09-23T05:49:48.376Z,1.80
2022-09-23T05:50:29.225Z,1.70
2022-09-23T05:51:30.954Z,1.80
2022-09-23T05:52:27.438Z,1.80
2022-09-23T05:53:27.378Z,1.50
2022-09-23T05:54:28.147Z,1.60
2022-09-23T05:55:27.361Z,1.80
2022-09-23T05:56:28.174Z,1.70
2022-09-23T05:57:27.306Z,1.80
2022-09-23T05:58:27.350Z,2.20
2022-09-23T05:59:27.293Z,1.70
2022-09-23T06:00:27.287Z,1.60
2022-09-23T06:01:27.301Z,1.40
2022-09-23T06:02:27.209Z,1.60
2022-09-23T06:03:27.331Z,1.70
2022-09-23T06:04:27.562Z,1.70
2022-09-23T06:05:27.220Z,1.50
2022-09-23T06:06:27.158Z,1.50
2022-09-23T06:07:27.140Z,1.60
2022-09-23T06:08:28.002Z,1.60
2022-09-23T06:09:28.757Z,1.50
2022-09-23T06:10:28.117Z,1.70
2022-09-23T06:11:27.112Z,1.60
2022-09-23T06:12:27.882Z,1.60
2022-09-23T06:13:28.039Z,1.80
2022-09-23T06:14:28.502Z,1.60
2022-09-23T06:15:27.043Z,1.70
2022-09-23T06:16:28.126Z,1.70
2022-09-23T06:17:27.093Z,1.70
2022-09-23T06:18:27.814Z,1.40
2022-09-23T06:19:26.967Z,1.50
2022-09-23T06:20:27.902Z,1.50
2022-09-23T06:21:27.783Z,1.50
2022-09-23T06:22:27.725Z,1.90
2022-09-23T06:23:27.927Z,1.60
2022-09-23T06:24:31.085Z,1.30
2022-09-23T06:25:27.975Z,2.00
2022-09-23T06:26:27.814Z,1.90
2022-09-23T06:27:27.714Z,1.70
2022-09-23T06:28:26.870Z,1.80
2022-09-23T06:29:26.835Z,1.60
2022-09-23T06:30:26.927Z,1.70
2022-09-23T06:31:27.655Z,1.20
2022-09-23T06:32:26.843Z,1.80
2022-09-23T06:33:36.252Z,1.70
2022-09-23T06:34:28.774Z,1.70
2022-09-23T06:35:27.896Z,1.50
2022-09-23T06:36:41.030Z,1.70
2022-09-23T06:37:28.557Z,1.40
2022-09-23T06:38:26.736Z,1.80
2022-09-23T06:39:27.587Z,1.70
2022-09-23T06:40:27.575Z,1.70
2022-09-23T06:41:26.657Z,1.70
2022-09-23T06:42:27.560Z,1.90
2022-09-23T06:43:26.712Z,1.60
2022-09-23T06:44:26.749Z,2.00
2022-09-23T06:45:26.689Z,1.70
2022-09-23T06:46:27.449Z,1.90
2022-09-23T06:47:26.622Z,2.20
2022-09-23T06:48:26.640Z,1.60
2022-09-23T06:49:26.722Z,1.90
2022-09-23T06:50:27.303Z,1.80
2022-09-23T06:51:26.600Z,2.00
2022-09-23T06:52:26.702Z,1.70
2022-09-23T06:53:27.512Z,2.10
2022-09-23T06:54:27.432Z,1.90
2022-09-23T06:55:26.673Z,2.10
2022-09-23T06:56:26.752Z,2.00
2022-09-23T06:57:26.479Z,2.00
2022-09-23T06:58:26.452Z,2.20
2022-09-23T06:59:26.511Z,1.80
2022-09-23T07:00:26.424Z,2.10
2022-09-23T07:01:26.521Z,1.90
2022-09-23T07:02:26.491Z,2.20
2022-09-23T07:03:27.334Z,2.30
2022-09-23T07:04:29.357Z,2.10
2022-09-23T07:05:26.431Z,1.90
2022-09-23T07:06:26.392Z,1.80
2022-09-23T07:07:26.309Z,2.00
2022-09-23T07:08:27.124Z,2.00
2022-09-23T07:09:26.315Z,2.00
2022-09-23T07:10:27.726Z,1.80
2022-09-23T07:11:26.708Z,1.80
2022-09-23T07:12:26.391Z,1.60
2022-09-23T07:13:26.330Z,1.90
2022-09-23T07:14:26.330Z,2.00
2022-09-23T07:15:26.294Z,2.00
2022-09-23T07:16:26.254Z,2.20
2022-09-23T07:17:26.181Z,2.30
2022-09-23T07:18:26.221Z,2.20
2022-09-23T07:19:27.076Z,2.00
2022-09-23T07:20:26.317Z,2.20
2022-09-23T07:21:27.580Z,2.30
2022-09-23T07:22:26.206Z,2.50
2022-09-23T07:23:26.368Z,2.20
2022-09-23T07:24:26.854Z,1.90
2022-09-23T07:25:26.090Z,2.40
2022-09-23T07:26:26.057Z,2.00
2022-09-23T07:27:26.143Z,2.20
2022-09-23T07:28:26.018Z,2.00
2022-09-23T07:29:26.228Z,2.00
2022-09-23T07:30:26.281Z,1.90
2022-09-23T07:31:38.341Z,2.20
2022-09-23T07:32:27.926Z,2.20
2022-09-23T07:33:32.272Z,2.60
2022-09-23T07:34:26.986Z,2.10
2022-09-23T07:35:26.822Z,2.20
2022-09-23T07:36:26.728Z,2.10
2022-09-23T07:37:26.897Z,2.00
2022-09-23T07:38:25.949Z,1.90
2022-09-23T07:39:26.167Z,2.20
2022-09-23T07:40:26.322Z,2.00
2022-09-23T07:41:26.789Z,2.10
2022-09-23T07:42:26.293Z,2.20
2022-09-23T07:43:26.564Z,2.40
2022-09-23T07:44:26.721Z,2.10
2022-09-23T07:45:25.781Z,2.10
2022-09-23T07:46:26.598Z,2.20
2022-09-23T07:47:26.699Z,2.20
2022-09-23T07:48:28.680Z,1.90
2022-09-23T07:49:26.743Z,2.00
2022-09-23T07:50:26.041Z,2.10
2022-09-23T07:51:25.806Z,2.20
2022-09-23T07:52:26.472Z,2.30
2022-09-23T07:53:25.713Z,2.60
2022-09-23T07:54:26.255Z,1.90
2022-09-23T07:55:25.753Z,2.00
2022-09-23T07:56:25.723Z,2.20
2022-09-23T07:57:25.880Z,1.80
2022-09-23T07:58:26.230Z,2.10
2022-09-23T07:59:25.638Z,1.90
2022-09-23T08:00:25.661Z,2.10
2022-09-23T08:01:25.758Z,1.60
2022-09-23T08:02:25.818Z,2.00
2022-09-23T08:03:25.724Z,2.30
2022-09-23T08:04:25.711Z,1.80
2022-09-23T08:05:25.693Z,1.90
2022-09-23T08:06:26.323Z,2.10
2022-09-23T08:07:25.513Z,1.80
2022-09-23T08:08:25.523Z,2.00
2022-09-23T08:09:26.391Z,2.00
2022-09-23T08:10:25.687Z,1.80
2022-09-23T08:11:25.467Z,1.80
2022-09-23T08:12:25.371Z,2.20
2022-09-23T08:13:25.383Z,1.80
2022-09-23T08:14:26.160Z,1.70
2022-09-23T08:15:25.347Z,1.80
2022-09-23T08:16:25.423Z,2.00
2022-09-23T08:17:25.331Z,2.10
2022-09-23T08:18:26.281Z,2.10
2022-09-23T08:19:26.209Z,2.30
2022-09-23T08:20:25.378Z,2.00
2022-09-23T08:21:26.355Z,1.90
2022-09-23T08:22:25.377Z,1.70
2022-09-23T08:23:26.058Z,1.60
2022-09-23T08:24:25.222Z,1.90
2022-09-23T08:25:26.128Z,1.70
2022-09-23T08:26:26.022Z,1.80
2022-09-23T08:27:25.196Z,2.10
2022-09-23T08:28:25.190Z,2.00
2022-09-23T08:29:25.153Z,1.80
2022-09-23T08:30:25.130Z,1.80
2022-09-23T08:31:25.228Z,2.10
2022-09-23T08:32:25.247Z,1.70
2022-09-23T08:33:25.240Z,1.70
2022-09-23T08:34:25.104Z,2.20
2022-09-23T08:35:25.153Z,1.90
2022-09-23T08:36:25.096Z,1.90
2022-09-23T08:37:25.086Z,2.20
2022-09-23T08:38:25.017Z,1.70
2022-09-23T08:39:25.016Z,2.00
2022-09-23T08:40:25.060Z,1.90
2022-09-23T08:41:25.865Z,2.20
2022-09-23T08:42:25.766Z,1.80
2022-09-23T08:43:25.930Z,2.20
2022-09-23T08:44:25.865Z,1.80
2022-09-23T08:45:24.979Z,1.80
2022-09-23T08:46:24.987Z,2.00
2022-09-23T08:47:25.799Z,1.90
2022-09-23T08:48:25.709Z,2.00
2022-09-23T08:49:24.930Z,1.40
2022-09-23T08:50:24.901Z,1.80
2022-09-23T08:51:25.712Z,1.80
2022-09-23T08:52:25.059Z,1.80
2022-09-23T08:53:25.110Z,1.80
2022-09-23T08:54:25.646Z,1.60
2022-09-23T08:55:25.799Z,1.90
2022-09-23T08:56:24.781Z,1.70
2022-09-23T08:57:25.612Z,1.90
2022-09-23T08:58:25.987Z,2.10
2022-09-23T08:59:25.673Z,1.70
2022-09-23T09:00:26.177Z,2.00
2022-09-23T09:01:24.837Z,1.90
2022-09-23T09:02:24.906Z,1.70
2022-09-23T09:03:25.595Z,1.60
2022-09-23T09:04:25.452Z,1.90
2022-09-23T09:05:24.736Z,1.70
2022-09-23T09:06:24.672Z,1.60
2022-09-23T09:07:36.340Z,2.00
2022-09-23T09:08:25.638Z,1.80
2022-09-23T09:09:24.638Z,1.70
2022-09-23T09:10:25.386Z,1.50
2022-09-23T09:11:25.537Z,1.60
2022-09-23T09:12:24.558Z,1.50
2022-09-23T09:13:24.579Z,1.80
2022-09-23T09:14:24.901Z,1.50
2022-09-23T09:15:25.006Z,1.70
2022-09-23T09:16:48.314Z,1.70
2022-09-23T09:17:25.627Z,1.80
2022-09-23T09:18:24.488Z,1.50
2022-09-23T09:19:25.287Z,1.50
2022-09-23T09:20:25.450Z,1.70
2022-09-23T09:21:24.491Z,1.50
2022-09-23T09:22:25.299Z,1.70
2022-09-23T09:23:25.870Z,1.40
2022-09-23T09:24:24.389Z,1.60
2022-09-23T09:25:24.431Z,1.30
2022-09-23T09:26:25.389Z,1.50
2022-09-23T09:27:24.427Z,1.30
2022-09-23T09:28:25.190Z,1.50
2022-09-23T09:29:34.731Z,1.50
2022-09-23T09:30:25.321Z,1.50
2022-09-23T09:31:24.414Z,1.40
2022-09-23T09:32:25.095Z,1.50
2022-09-23T09:33:24.267Z,1.60
2022-09-23T09:34:24.284Z,1.30
2022-09-23T09:35:24.279Z,1.70
2022-09-23T09:36:24.746Z,1.60
2022-09-23T09:37:24.417Z,2.60
2022-09-23T09:38:24.996Z,1.90
2022-09-23T09:39:26.298Z,1.40
2022-09-23T09:40:25.198Z,1.60
2022-09-23T09:41:24.222Z,1.10
2022-09-23T09:42:24.145Z,1.50
2022-09-23T09:43:24.469Z,1.40
2022-09-23T09:44:24.936Z,1.40
2022-09-23T09:45:25.097Z,1.40
2022-09-23T09:46:24.106Z,1.50
2022-09-23T09:47:24.088Z,1.40
2022-09-23T09:48:24.069Z,1.30
2022-09-23T09:49:24.087Z,1.20
2022-09-23T09:50:24.877Z,1.60
2022-09-23T09:51:24.029Z,1.30
2022-09-23T09:52:25.537Z,1.20
2022-09-23T09:53:24.879Z,1.30
2022-09-23T09:54:23.956Z,1.30
2022-09-23T09:55:24.847Z,1.50
2022-09-23T09:56:23.956Z,1.50
2022-09-23T09:57:24.255Z,1.60
2022-09-23T09:58:24.860Z,1.50
2022-09-23T09:59:24.055Z,1.60
2022-09-23T10:00:24.680Z,1.60
2022-09-23T10:01:24.852Z,1.30
2022-09-23T10:02:24.694Z,1.50
2022-09-23T10:03:23.814Z,1.80
2022-09-23T10:04:23.884Z,1.30
2022-09-23T10:05:24.655Z,1.10
2022-09-23T10:06:24.554Z,1.40
2022-09-23T10:07:23.807Z,1.20
2022-09-23T10:08:23.814Z,1.30
2022-09-23T10:09:24.541Z,1.30
2022-09-23T10:10:33.172Z,1.30
2022-09-23T10:11:24.686Z,1.40
2022-09-23T10:12:23.723Z,1.60
2022-09-23T10:13:23.721Z,1.70
2022-09-23T10:14:24.761Z,1.60
2022-09-23T10:15:24.488Z,1.30
2022-09-23T10:16:24.638Z,1.50
2022-09-23T10:17:24.522Z,1.30
2022-09-23T10:18:24.422Z,1.30
2022-09-23T10:19:23.572Z,1.50
2022-09-23T10:20:24.488Z,1.80
2022-09-23T10:21:27.959Z,1.80
2022-09-23T10:22:23.521Z,1.60
2022-09-23T10:23:23.543Z,1.80
2022-09-23T10:24:24.363Z,1.80
2022-09-23T10:25:23.661Z,1.70
2022-09-23T10:26:23.480Z,1.70
2022-09-23T10:27:24.330Z,1.90
2022-09-23T10:28:23.451Z,1.60
2022-09-23T10:29:24.394Z,1.50
2022-09-23T10:30:24.293Z,1.60
2022-09-23T10:31:24.212Z,1.70
2022-09-23T10:32:23.407Z,2.00
2022-09-23T10:33:24.269Z,1.50
2022-09-23T10:34:24.170Z,1.50
2022-09-23T10:35:23.346Z,1.50
2022-09-23T10:36:23.334Z,1.60
2022-09-23T10:37:23.307Z,1.20
2022-09-23T10:38:23.308Z,1.20
2022-09-23T10:39:23.330Z,1.30
2022-09-23T10:40:23.305Z,1.30
2022-09-23T10:41:24.273Z,1.10
2022-09-23T10:42:23.242Z,1.50
2022-09-23T10:43:24.084Z,1.50
2022-09-23T10:44:24.242Z,1.30
2022-09-23T10:45:23.293Z,1.20
2022-09-23T10:46:24.130Z,1.20
2022-09-23T10:47:23.205Z,1.40
2022-09-23T10:48:24.110Z,1.30
2022-09-23T10:49:24.109Z,1.20
2022-09-23T10:50:23.920Z,0.90
2022-09-23T10:51:26.093Z,1.20
2022-09-23T10:52:23.156Z,1.20
2022-09-23T10:53:24.081Z,1.20
2022-09-23T10:54:24.052Z,1.10
2022-09-23T10:55:23.953Z,1.30
2022-09-23T10:56:23.054Z,1.20
2022-09-23T10:57:23.035Z,1.30
2022-09-23T10:58:23.927Z,1.10
2022-09-23T10:59:24.475Z,1.10
2022-09-23T11:00:23.999Z,1.20
2022-09-23T11:01:23.991Z,1.30
2022-09-23T11:02:23.860Z,1.10
2022-09-23T11:03:23.959Z,1.30
2022-09-23T11:04:22.989Z,1.50
2022-09-23T11:05:23.181Z,1.40
2022-09-23T11:06:22.927Z,1.00
2022-09-23T11:07:23.841Z,1.50
2022-09-23T11:08:23.734Z,1.40
2022-09-23T11:09:22.904Z,1.30
2022-09-23T11:10:44.921Z,1.40
2022-09-23T11:11:24.726Z,1.20
2022-09-23T11:12:23.159Z,1.10
2022-09-23T11:13:23.776Z,1.20
2022-09-23T11:14:22.849Z,1.20
2022-09-23T11:15:23.579Z,1.40
2022-09-23T11:16:22.837Z,1.20
2022-09-23T11:17:23.642Z,1.10
2022-09-23T11:18:22.811Z,1.50
2022-09-23T11:19:22.753Z,1.40
2022-09-23T11:20:23.757Z,1.20
2022-09-23T11:21:23.524Z,1.10
2022-09-23T11:22:22.715Z,1.40
2022-09-23T11:23:22.756Z,1.10
2022-09-23T11:24:22.793Z,1.10
2022-09-23T11:25:23.648Z,1.20
2022-09-23T11:26:22.980Z,1.20
2022-09-23T11:27:23.459Z,1.40
2022-09-23T11:28:22.767Z,1.20
2022-09-23T11:29:22.726Z,1.30
2022-09-23T11:30:22.721Z,1.40
2022-09-23T11:31:23.677Z,1.20
2022-09-23T11:32:22.680Z,1.40
2022-09-23T11:33:23.422Z,1.10
2022-09-23T11:34:22.593Z,1.30
2022-09-23T11:35:22.576Z,1.00
2022-09-23T11:36:23.364Z,1.20
2022-09-23T11:37:22.698Z,1.30
2022-09-23T11:38:23.428Z,1.40
2022-09-23T11:39:22.614Z,1.30
2022-09-23T11:40:22.759Z,1.30
2022-09-23T11:41:22.662Z,1.20
2022-09-23T11:42:22.681Z,1.50
2022-09-23T11:43:22.437Z,1.40
2022-09-23T11:44:23.361Z,1.40
2022-09-23T11:45:22.426Z,1.00
2022-09-23T11:46:23.215Z,1.10
2022-09-23T11:47:22.419Z,1.10
2022-09-23T11:48:22.382Z,1.20
2022-09-23T11:49:22.575Z,1.30
2022-09-23T11:50:22.561Z,1.20
2022-09-23T11:51:22.625Z,1.20
2022-09-23T11:52:22.714Z,1.30
2022-09-23T11:53:22.337Z,1.30
2022-09-23T11:54:23.167Z,1.20
2022-09-23T11:55:23.344Z,1.20
2022-09-23T11:56:31.494Z,1.20
2022-09-23T11:57:24.176Z,1.40
2022-09-23T11:58:25.947Z,1.10
2022-09-23T11:59:34.703Z,1.10
2022-09-23T12:00:23.353Z,1.50
2022-09-23T12:01:33.860Z,1.20
2022-09-23T12:02:28.238Z,1.10
2022-09-23T12:03:30.369Z,1.40
2022-09-23T12:04:24.432Z,1.10
2022-09-23T12:05:23.263Z,1.10
2022-09-23T12:06:23.080Z,1.50
2022-09-23T12:07:22.953Z,1.10
2022-09-23T12:08:22.227Z,1.20
2022-09-23T12:09:40.976Z,1.20
2022-09-23T12:10:23.946Z,1.40
2022-09-23T12:11:22.116Z,1.20
2022-09-23T12:12:26.846Z,1.40
2022-09-23T12:13:22.892Z,1.20
2022-09-23T12:14:22.173Z,1.40
2022-09-23T12:15:22.027Z,1.20
2022-09-23T12:16:22.094Z,1.30
2022-09-23T12:17:22.109Z,1.20
2022-09-23T12:18:23.231Z,1.10
2022-09-23T12:19:22.025Z,1.50
2022-09-23T12:20:22.088Z,1.10
2022-09-23T12:21:45.845Z,1.50
2022-09-23T12:22:22.947Z,1.20
2022-09-23T12:23:22.715Z,1.10
2022-09-23T12:24:21.976Z,1.20
2022-09-23T12:25:22.046Z,1.20
2022-09-23T12:26:23.299Z,1.60
2022-09-23T12:27:21.919Z,1.20
2022-09-23T12:28:21.883Z,1.10
2022-09-23T12:29:22.671Z,1.20
2022-09-23T12:30:21.966Z,1.10
2022-09-23T12:31:22.702Z,1.30
2022-09-23T12:32:21.772Z,1.40
2022-09-23T12:33:22.819Z,1.30
2022-09-23T12:34:21.854Z,1.10
2022-09-23T12:35:22.576Z,1.10
2022-09-23T12:36:22.735Z,1.10
2022-09-23T12:37:22.642Z,1.30
2022-09-23T12:38:22.548Z,1.30
2022-09-23T12:39:21.676Z,1.10
2022-09-23T12:40:21.740Z,1.20
2022-09-23T12:41:21.725Z,1.20
2022-09-23T12:42:21.677Z,1.20
2022-09-23T12:43:22.583Z,1.40
2022-09-23T12:44:22.118Z,1.60
2022-09-23T12:45:21.612Z,1.40
2022-09-23T12:46:22.602Z,1.20
2022-09-23T12:47:21.573Z,1.40
2022-09-23T12:48:22.352Z,1.30
2022-09-23T12:49:21.570Z,1.20
2022-09-23T12:50:24.395Z,1.60
2022-09-23T12:51:22.323Z,1.40
2022-09-23T12:52:22.482Z,1.20
2022-09-23T12:53:22.386Z,1.40
2022-09-23T12:54:22.292Z,1.60
2022-09-23T12:55:22.468Z,1.30
2022-09-23T12:56:21.575Z,1.20
2022-09-23T12:57:21.910Z,1.30
2022-09-23T12:58:22.414Z,1.30
2022-09-23T12:59:22.317Z,1.40
2022-09-23T13:00:21.475Z,1.30
2022-09-23T13:01:22.539Z,1.40
2022-09-23T13:02:21.470Z,1.30
2022-09-23T13:03:21.554Z,1.50
2022-09-23T13:04:22.402Z,1.20
2022-09-23T13:05:22.787Z,1.50
2022-09-23T13:06:22.160Z,1.10
2022-09-23T13:07:22.062Z,1.30
2022-09-23T13:08:22.266Z,1.20
2022-09-23T13:09:21.292Z,1.00
2022-09-23T13:10:22.070Z,1.20
2022-09-23T13:11:22.175Z,1.40
2022-09-23T13:12:22.101Z,1.00
2022-09-23T13:13:21.233Z,1.20
2022-09-23T13:14:27.229Z,1.00
2022-09-23T13:15:22.205Z,1.10
2022-09-23T13:16:21.243Z,1.20
2022-09-23T13:17:21.191Z,1.00
2022-09-23T13:18:21.167Z,1.10